Time;durP1;ratioP1;P1;durP2;ratioP2;P2;SDS_P1;SDS_P2;PMS_P1;PMS_P2;Temp;Humidity;BMP_temperature;BMP_pressure;BME280_temperature;BME280_humidity;BME280_pressure;Samples;Min_cycle;Max_cycle;Signal;HPM_P1;HPM_P2
2021/01/05 00:00:33;;;;;;;10.87;6.90;;;2.90;99.90;;;;;;5072901;28;20207;-80
2021/01/05 00:02:59;;;;;;;10.70;6.90;;;2.90;99.90;;;;;;5072884;28;20223;-79
2021/01/05 00:05:26;;;;;;;9.87;6.40;;;2.90;99.90;;;;;;5072805;28;20231;-80
2021/01/05 00:07:52;;;;;;;10.37;6.57;;;2.90;99.90;;;;;;5072947;28;20207;-79
2021/01/05 00:10:19;;;;;;;10.33;7.23;;;2.90;99.90;;;;;;5072520;28;20211;-79
2021/01/05 00:12:46;;;;;;;10.73;6.93;;;2.90;99.90;;;;;;5072522;28;20249;-79
2021/01/05 00:15:15;;;;;;;11.10;7.60;;;2.90;99.90;;;;;;5072499;28;20200;-79
2021/01/05 00:17:42;;;;;;;11.13;7.00;;;2.90;99.90;;;;;;5072609;28;20197;-79
2021/01/05 00:20:12;;;;;;;10.87;7.37;;;2.90;99.90;;;;;;5072191;28;20212;-79
2021/01/05 00:22:38;;;;;;;10.07;6.83;;;2.80;99.90;;;;;;5071003;28;20208;-79
2021/01/05 00:25:07;;;;;;;9.03;6.60;;;2.90;99.90;;;;;;5069596;28;20227;-79
2021/01/05 00:27:33;;;;;;;10.60;7.07;;;2.90;99.90;;;;;;5070039;28;20262;-79
2021/01/05 00:30:00;;;;;;;10.60;7.30;;;2.90;99.90;;;;;;5062341;28;20258;-79
2021/01/05 00:32:26;;;;;;;12.17;7.83;;;2.90;99.90;;;;;;5052800;28;20208;-80
2021/01/05 00:34:54;;;;;;;10.97;7.83;;;2.80;99.90;;;;;;5052739;28;20661;-79
2021/01/05 00:37:20;;;;;;;11.67;7.37;;;2.90;99.90;;;;;;5052644;28;20204;-79
2021/01/05 00:39:47;;;;;;;12.47;7.73;;;2.90;99.90;;;;;;5052730;28;20613;-79
2021/01/05 00:42:14;;;;;;;12.00;7.23;;;2.90;99.90;;;;;;5052416;28;20969;-79
2021/01/05 00:44:41;;;;;;;11.90;7.27;;;2.90;99.90;;;;;;5052837;28;20556;-80
2021/01/05 00:47:07;;;;;;;10.67;6.37;;;2.80;99.90;;;;;;5057305;28;20632;-79
2021/01/05 00:49:33;;;;;;;11.13;8.13;;;2.80;99.90;;;;;;5056206;28;20566;-79
2021/01/05 00:52:01;;;;;;;12.93;8.30;;;2.80;99.90;;;;;;5058430;28;20665;-79
2021/01/05 00:54:27;;;;;;;11.40;7.73;;;2.80;99.90;;;;;;5057137;28;20207;-79
2021/01/05 00:57:01;;;;;;;11.70;7.63;;;2.90;99.90;;;;;;5071807;28;20200;-79
2021/01/05 00:59:28;;;;;;;13.77;8.33;;;2.90;99.90;;;;;;5068532;28;20214;-79
2021/01/05 01:01:54;;;;;;;13.10;7.80;;;2.90;99.90;;;;;;5052871;28;20681;-79
2021/01/05 01:04:21;;;;;;;13.83;8.53;;;2.90;99.90;;;;;;5065896;28;20708;-79
2021/01/05 01:06:47;;;;;;;13.20;8.27;;;2.90;99.90;;;;;;5052314;28;20201;-80
2021/01/05 01:09:15;;;;;;;13.40;8.53;;;3.00;99.90;;;;;;5051782;28;20204;-79
2021/01/05 01:11:56;;;;;;;12.90;8.27;;;3.00;99.90;;;;;;5060195;28;20200;-79
2021/01/05 01:14:22;;;;;;;13.83;8.23;;;2.90;99.90;;;;;;5055588;28;20211;-79
2021/01/05 01:16:49;;;;;;;9.83;7.27;;;2.90;99.90;;;;;;5052055;28;20215;-79
2021/01/05 01:19:15;;;;;;;10.67;7.30;;;2.90;99.90;;;;;;5051851;28;20395;-79
2021/01/05 01:21:45;;;;;;;11.47;7.37;;;2.90;99.90;;;;;;5052159;28;20254;-79
2021/01/05 01:24:11;;;;;;;13.30;7.93;;;2.80;99.90;;;;;;5051761;28;20232;-79
2021/01/05 01:26:40;;;;;;;12.90;8.10;;;2.80;99.90;;;;;;5051594;28;20658;-79
2021/01/05 01:29:06;;;;;;;13.23;8.63;;;2.80;99.90;;;;;;5063102;28;20227;-79
2021/01/05 01:31:33;;;;;;;12.27;8.00;;;2.70;99.90;;;;;;5054455;28;20678;-79
2021/01/05 01:33:59;;;;;;;15.90;9.10;;;2.80;99.90;;;;;;5051849;28;20208;-79
2021/01/05 01:36:25;;;;;;;13.77;8.57;;;2.80;99.90;;;;;;5051451;28;20201;-79
2021/01/05 01:38:52;;;;;;;14.10;8.90;;;2.90;99.90;;;;;;5051947;28;20208;-79
2021/01/05 01:41:18;;;;;;;13.47;8.70;;;2.90;99.90;;;;;;5052001;28;20209;-79
2021/01/05 01:43:45;;;;;;;13.33;8.53;;;2.90;99.90;;;;;;5051582;28;20320;-79
2021/01/05 01:46:13;;;;;;;15.30;8.30;;;2.90;99.90;;;;;;5051620;28;20633;-79
2021/01/05 01:48:39;;;;;;;14.33;8.63;;;3.00;99.90;;;;;;5051640;28;20259;-79
2021/01/05 01:51:06;;;;;;;13.47;8.93;;;2.90;99.90;;;;;;5051884;28;20282;-79
2021/01/05 01:54:15;;;;;;;11.73;8.00;;;2.80;99.90;;;;;;5051695;28;20206;-79
2021/01/05 01:57:19;;;;;;;13.67;8.57;;;2.80;99.90;;;;;;5051455;28;20204;-79
2021/01/05 02:00:12;;;;;;;12.97;8.53;;;2.90;99.90;;;;;;5051497;28;20688;-79
2021/01/05 02:03:09;;;;;;;12.87;8.40;;;2.90;99.90;;;;;;5058209;28;20574;-79
2021/01/05 02:05:42;;;;;;;13.30;8.27;;;2.80;99.90;;;;;;5058524;28;20211;-79
2021/01/05 02:08:17;;;;;;;13.83;8.67;;;2.80;99.90;;;;;;5055606;28;20204;-79
2021/01/05 02:10:51;;;;;;;14.30;8.93;;;2.80;99.90;;;;;;5055499;28;20208;-79
2021/01/05 02:13:46;;;;;;;13.70;8.30;;;2.80;99.90;;;;;;5055208;28;20283;-78
2021/01/05 02:16:26;;;;;;;14.67;9.33;;;2.80;99.90;;;;;;5052348;28;20210;-79
2021/01/05 02:18:57;;;;;;;14.47;8.97;;;2.90;99.90;;;;;;5055097;28;20204;-79
2021/01/05 02:21:28;;;;;;;13.53;8.93;;;2.90;99.90;;;;;;5055288;28;20300;-79
2021/01/05 02:24:19;;;;;;;14.03;9.10;;;2.90;99.90;;;;;;5054878;28;20220;-79
2021/01/05 02:26:51;;;;;;;15.07;9.43;;;2.80;99.90;;;;;;5054961;28;20201;-79
2021/01/05 02:29:23;;;;;;;15.77;9.63;;;2.80;99.90;;;;;;5054965;28;20205;-79
2021/01/05 02:32:11;;;;;;;15.27;9.50;;;2.80;99.90;;;;;;5054893;28;20236;-79
2021/01/05 02:34:53;;;;;;;14.27;8.60;;;2.90;99.90;;;;;;5054855;28;20233;-79
2021/01/05 02:37:28;;;;;;;14.93;9.37;;;2.90;99.90;;;;;;5054615;28;20578;-79
2021/01/05 02:40:20;;;;;;;13.57;9.03;;;2.90;99.90;;;;;;5054527;28;20205;-79
2021/01/05 02:43:03;;;;;;;15.60;9.70;;;2.90;99.90;;;;;;5040840;28;20213;-79
2021/01/05 02:45:34;;;;;;;16.43;10.23;;;2.90;99.90;;;;;;5054431;28;20211;-79
2021/01/05 02:48:31;;;;;;;15.63;9.00;;;2.90;99.90;;;;;;5054413;28;20584;-79
2021/01/05 02:51:47;;;;;;;17.57;9.87;;;2.90;99.90;;;;;;5053788;28;20613;-79
2021/01/05 02:54:36;;;;;;;13.57;9.13;;;2.80;99.90;;;;;;5054449;28;20206;-79
2021/01/05 02:57:22;;;;;;;15.77;9.27;;;3.00;99.90;;;;;;5054305;28;20248;-79
2021/01/05 03:00:27;;;;;;;17.67;9.30;;;2.90;99.90;;;;;;5053838;28;20212;-79
2021/01/05 03:03:36;;;;;;;15.50;9.10;;;2.90;99.90;;;;;;5062239;28;20607;-79
2021/01/05 03:06:28;;;;;;;15.03;9.23;;;3.00;99.90;;;;;;5066694;28;20201;-79
2021/01/05 03:09:21;;;;;;;16.47;9.83;;;3.00;99.90;;;;;;5054240;28;20567;-79
2021/01/05 03:12:21;;;;;;;14.87;8.97;;;3.00;99.90;;;;;;5053907;28;20207;-79
2021/01/05 03:14:58;;;;;;;16.73;8.07;;;3.00;99.90;;;;;;5053263;28;20208;-79
2021/01/05 03:17:31;;;;;;;16.10;9.40;;;3.00;99.90;;;;;;5054036;28;20222;-79
2021/01/05 03:20:10;;;;;;;15.50;9.43;;;3.00;99.90;;;;;;5053965;28;20217;-79
2021/01/05 03:22:44;;;;;;;16.60;9.80;;;2.90;99.90;;;;;;5053694;28;20296;-79
2021/01/05 03:25:10;;;;;;;16.50;9.50;;;2.90;99.90;;;;;;5054114;28;20283;-79
2021/01/05 03:27:38;;;;;;;15.97;9.97;;;2.90;99.90;;;;;;5053523;28;20213;-79
2021/01/05 03:30:08;;;;;;;14.87;9.33;;;2.90;99.90;;;;;;5053975;28;20228;-79
2021/01/05 03:32:35;;;;;;;14.53;8.93;;;2.90;99.90;;;;;;5053610;28;20216;-79
2021/01/05 03:35:03;;;;;;;16.50;9.73;;;2.90;99.90;;;;;;5053851;28;20202;-79
2021/01/05 03:37:30;;;;;;;15.67;9.40;;;2.80;99.90;;;;;;5053651;28;20542;-79
2021/01/05 03:39:56;;;;;;;15.83;8.97;;;2.90;99.90;;;;;;5053218;28;20303;-79
2021/01/05 03:42:22;;;;;;;16.23;9.87;;;2.80;99.90;;;;;;5053324;28;20679;-79
2021/01/05 03:44:48;;;;;;;17.40;10.27;;;2.90;99.90;;;;;;5053120;28;20225;-79
2021/01/05 03:47:15;;;;;;;18.20;10.47;;;2.90;99.90;;;;;;5053279;28;20201;-79
2021/01/05 03:49:41;;;;;;;16.57;10.10;;;2.90;99.90;;;;;;5053091;28;20659;-79
2021/01/05 03:52:08;;;;;;;15.90;9.80;;;3.00;99.90;;;;;;5053474;28;20209;-79
2021/01/05 03:54:35;;;;;;;18.43;10.57;;;2.90;99.90;;;;;;5053370;28;20200;-79
2021/01/05 03:57:01;;;;;;;14.63;9.57;;;3.00;99.90;;;;;;5053093;28;20221;-78
2021/01/05 03:59:27;;;;;;;15.23;9.43;;;2.90;99.90;;;;;;5053097;28;20215;-79
2021/01/05 04:01:54;;;;;;;16.63;10.03;;;2.90;99.90;;;;;;5052924;28;20556;-79
2021/01/05 04:04:21;;;;;;;16.00;9.27;;;2.90;99.90;;;;;;5053020;28;20226;-79
2021/01/05 04:06:47;;;;;;;17.23;9.97;;;2.90;99.90;;;;;;5053303;28;20205;-79
2021/01/05 04:09:15;;;;;;;16.87;9.77;;;2.80;99.90;;;;;;5052883;28;20208;-79
2021/01/05 04:11:41;;;;;;;18.07;10.47;;;2.80;99.90;;;;;;5052810;28;20671;-79
2021/01/05 04:14:08;;;;;;;13.80;8.53;;;2.80;99.90;;;;;;5052732;28;20209;-79
2021/01/05 04:16:34;;;;;;;17.13;9.87;;;2.80;99.90;;;;;;5052692;28;20210;-79
2021/01/05 04:19:00;;;;;;;17.67;10.00;;;2.80;99.90;;;;;;5052712;28;20213;-79
2021/01/05 04:21:27;;;;;;;17.37;9.97;;;2.80;99.90;;;;;;5053049;28;20213;-79
2021/01/05 04:23:53;;;;;;;16.47;9.67;;;2.80;99.90;;;;;;5052714;28;20316;-79
2021/01/05 04:26:20;;;;;;;14.73;9.57;;;2.80;99.90;;;;;;5051816;28;20204;-79
2021/01/05 04:28:46;;;;;;;18.73;10.90;;;2.80;99.90;;;;;;5052786;28;20228;-79
2021/01/05 04:31:13;;;;;;;17.03;10.23;;;2.90;99.90;;;;;;5052396;28;20205;-79
2021/01/05 04:33:39;;;;;;;16.40;10.37;;;2.90;99.90;;;;;;5053009;28;20200;-79
2021/01/05 04:36:06;;;;;;;16.90;10.53;;;2.90;99.90;;;;;;5052892;28;20206;-80
2021/01/05 04:38:33;;;;;;;16.13;9.50;;;2.90;99.90;;;;;;5053987;28;20205;-79
2021/01/05 04:41:01;;;;;;;18.40;10.47;;;2.90;99.90;;;;;;5054199;28;20201;-79
2021/01/05 04:43:46;;;;;;;17.80;10.63;;;2.90;99.90;;;;;;5053401;28;20808;-79
2021/01/05 04:46:38;;;;;;;18.63;10.13;;;2.90;99.90;;;;;;5052459;28;20212;-79
2021/01/05 04:49:19;;;;;;;17.77;10.57;;;2.90;99.90;;;;;;5052722;28;20356;-79
2021/01/05 04:51:52;;;;;;;19.57;10.30;;;2.90;99.90;;;;;;5052508;28;20669;-79
2021/01/05 04:54:23;;;;;;;18.03;11.07;;;2.80;99.90;;;;;;5052637;28;20323;-79
2021/01/05 04:57:02;;;;;;;18.40;10.47;;;2.90;99.90;;;;;;5052778;28;20200;-79
2021/01/05 04:59:34;;;;;;;18.87;10.83;;;3.00;99.90;;;;;;5052607;28;20219;-80
2021/01/05 05:02:01;;;;;;;17.97;11.00;;;2.90;99.90;;;;;;5056338;28;20208;-79
2021/01/05 05:04:38;;;;;;;19.63;11.77;;;2.90;99.90;;;;;;5071362;28;20219;-79
2021/01/05 05:07:16;;;;;;;18.70;10.80;;;2.80;99.90;;;;;;5066263;28;20201;-79
2021/01/05 05:09:51;;;;;;;19.10;10.57;;;2.80;99.90;;;;;;5067085;28;20209;-79
2021/01/05 05:12:41;;;;;;;18.57;10.70;;;2.80;99.90;;;;;;5057337;28;20243;-79
2021/01/05 05:15:43;;;;;;;18.27;10.33;;;2.90;99.90;;;;;;5053051;28;20237;-79
2021/01/05 05:18:24;;;;;;;19.93;11.27;;;3.00;99.90;;;;;;5042573;28;20276;-79
2021/01/05 05:21:06;;;;;;;21.65;13.25;;;2.90;99.90;;;;;;5064658;28;20499;-79
2021/01/05 05:23:53;;;;;;;19.70;11.10;;;2.90;99.90;;;;;;5064851;28;20236;-79
2021/01/05 05:26:25;;;;;;;19.00;11.70;;;3.00;99.90;;;;;;5052716;28;20200;-79
2021/01/05 05:28:57;;;;;;;20.53;11.20;;;3.00;99.90;;;;;;5056707;28;20201;-80
2021/01/05 05:31:28;;;;;;;19.47;10.60;;;2.90;99.90;;;;;;5051758;28;20192;-79
2021/01/05 05:33:59;;;;;;;19.43;11.20;;;2.80;99.90;;;;;;5061354;28;20202;-80
2021/01/05 05:36:51;;;;;;;18.90;11.37;;;2.90;99.90;;;;;;5057049;28;20205;-79
2021/01/05 05:39:41;;;;;;;19.63;10.97;;;3.00;99.90;;;;;;5047980;28;20208;-79
2021/01/05 05:42:21;;;;;;;17.50;10.50;;;2.90;99.90;;;;;;5055966;28;20255;-80
2021/01/05 05:44:51;;;;;;;20.37;11.33;;;2.90;99.90;;;;;;5055950;28;20226;-79
2021/01/05 05:47:24;;;;;;;19.73;11.23;;;2.90;99.90;;;;;;5055576;28;20201;-79
2021/01/05 05:49:57;;;;;;;20.70;11.40;;;2.90;99.90;;;;;;5060216;28;20227;-79
2021/01/05 05:52:35;;;;;;;20.03;11.33;;;2.90;99.90;;;;;;5065070;28;20208;-79
2021/01/05 05:55:06;;;;;;;19.27;10.30;;;2.90;99.90;;;;;;5064752;28;20226;-79
2021/01/05 05:57:40;;;;;;;19.13;10.57;;;2.90;99.90;;;;;;5069457;28;20207;-79
2021/01/05 06:00:35;;;;;;;19.83;10.60;;;2.90;99.90;;;;;;5057890;28;20733;-79
2021/01/05 06:03:05;;;;;;;17.17;10.73;;;3.00;99.90;;;;;;5064818;28;20222;-79
2021/01/05 06:05:33;;;;;;;18.07;10.63;;;3.00;99.90;;;;;;5059154;28;20208;-79
2021/01/05 06:08:00;;;;;;;19.10;10.77;;;2.90;99.90;;;;;;5055187;28;20205;-79
2021/01/05 06:10:26;;;;;;;19.53;11.47;;;3.00;99.90;;;;;;5055045;28;20205;-79
2021/01/05 06:12:53;;;;;;;19.13;9.90;;;3.00;99.90;;;;;;5068004;28;20629;-79
2021/01/05 06:15:20;;;;;;;17.80;10.73;;;3.00;99.90;;;;;;5067958;28;20199;-79
2021/01/05 06:17:47;;;;;;;17.83;11.13;;;3.00;99.90;;;;;;5067864;28;20259;-79
2021/01/05 06:20:15;;;;;;;19.03;10.90;;;3.10;99.90;;;;;;5065949;28;20220;-79
2021/01/05 06:22:42;;;;;;;16.57;10.07;;;3.20;99.90;;;;;;5064710;28;20253;-79
2021/01/05 06:25:10;;;;;;;16.57;9.57;;;3.20;99.90;;;;;;5064970;28;20388;-79
2021/01/05 06:27:37;;;;;;;19.47;10.50;;;3.00;99.90;;;;;;5064247;28;20217;-80
2021/01/05 06:30:05;;;;;;;17.67;10.07;;;2.90;99.90;;;;;;5068727;28;20211;-79
2021/01/05 06:32:32;;;;;;;16.27;9.97;;;2.90;99.90;;;;;;5068462;28;20607;-80
2021/01/05 06:34:58;;;;;;;15.83;9.17;;;2.90;99.90;;;;;;5067138;28;20200;-79
2021/01/05 06:37:25;;;;;;;18.30;10.03;;;2.80;99.90;;;;;;5061628;28;20210;-79
2021/01/05 06:39:52;;;;;;;19.53;10.50;;;2.80;99.90;;;;;;5072810;28;20197;-79
2021/01/05 06:42:18;;;;;;;20.20;10.50;;;2.90;99.90;;;;;;5073998;28;20587;-79
2021/01/05 06:44:45;;;;;;;19.60;11.50;;;3.00;99.90;;;;;;5061124;28;20220;-79
2021/01/05 06:47:12;;;;;;;16.70;9.67;;;3.00;99.90;;;;;;5053492;28;20947;-79
2021/01/05 06:49:39;;;;;;;18.73;10.50;;;3.10;99.90;;;;;;5055963;28;20204;-79
2021/01/05 06:52:06;;;;;;;16.33;10.30;;;3.10;99.90;;;;;;5057075;28;20206;-80
2021/01/05 06:54:33;;;;;;;15.57;9.63;;;3.10;99.90;;;;;;5066964;28;20201;-79
2021/01/05 06:57:00;;;;;;;19.20;10.70;;;3.20;99.90;;;;;;5064093;28;20603;-79
2021/01/05 06:59:28;;;;;;;17.40;10.50;;;3.10;99.90;;;;;;5074285;28;20208;-79
2021/01/05 07:01:56;;;;;;;18.47;10.90;;;3.10;99.90;;;;;;5065280;28;20200;-79
2021/01/05 07:04:23;;;;;;;17.80;10.67;;;3.10;99.90;;;;;;5067432;28;20204;-79
2021/01/05 07:06:49;;;;;;;17.13;10.13;;;3.10;99.90;;;;;;5053703;28;20201;-79
2021/01/05 07:09:17;;;;;;;18.17;9.97;;;3.10;99.90;;;;;;5068518;28;20211;-80
2021/01/05 07:11:45;;;;;;;18.00;10.80;;;3.10;99.90;;;;;;5073388;28;20545;-79
2021/01/05 07:14:12;;;;;;;19.63;11.37;;;3.10;99.90;;;;;;5073784;28;20205;-79
2021/01/05 07:16:38;;;;;;;21.80;11.83;;;3.10;99.90;;;;;;5068622;28;20613;-80
2021/01/05 07:19:04;;;;;;;21.07;10.23;;;3.20;99.90;;;;;;5057552;28;20209;-79
2021/01/05 07:21:31;;;;;;;20.60;11.17;;;3.20;99.90;;;;;;5060867;28;20209;-80
2021/01/05 07:23:57;;;;;;;38.80;11.80;;;3.30;99.90;;;;;;5052916;28;20235;-79
2021/01/05 07:26:24;;;;;;;20.97;11.07;;;3.20;99.90;;;;;;5053431;28;20206;-78
2021/01/05 07:28:51;;;;;;;18.23;10.57;;;3.20;99.90;;;;;;5053469;28;20212;-79
2021/01/05 07:31:18;;;;;;;20.97;10.77;;;3.20;99.90;;;;;;5053627;28;20212;-79
2021/01/05 07:33:44;;;;;;;24.23;11.70;;;3.20;99.90;;;;;;5053723;28;20203;-79
2021/01/05 07:36:23;;;;;;;18.23;11.07;;;3.20;99.90;;;;;;5068685;28;20657;-79
2021/01/05 07:38:49;;;;;;;19.40;10.93;;;3.10;99.90;;;;;;5067349;28;20204;-79
2021/01/05 07:41:15;;;;;;;19.83;11.47;;;3.10;99.90;;;;;;5064684;28;20275;-79
2021/01/05 07:43:42;;;;;;;19.03;11.27;;;3.10;99.90;;;;;;5055962;28;20224;-79
2021/01/05 07:46:09;;;;;;;19.93;10.70;;;3.20;99.90;;;;;;5053956;28;20204;-79
2021/01/05 07:48:36;;;;;;;21.87;11.53;;;3.10;99.90;;;;;;5053259;28;20202;-79
2021/01/05 07:51:04;;;;;;;19.60;11.50;;;3.10;99.90;;;;;;5053302;28;20201;-80
2021/01/05 07:53:30;;;;;;;19.70;10.73;;;3.10;99.90;;;;;;5065091;28;20204;-80
2021/01/05 07:55:57;;;;;;;18.97;10.83;;;3.00;99.90;;;;;;5070162;28;20215;-79
2021/01/05 07:58:24;;;;;;;20.97;11.00;;;2.90;99.90;;;;;;5073005;28;20962;-79
2021/01/05 08:00:51;;;;;;;20.50;10.87;;;3.00;99.90;;;;;;5072586;28;20856;-80
2021/01/05 08:03:18;;;;;;;19.17;11.43;;;3.00;99.90;;;;;;5056324;28;20215;-79
2021/01/05 08:05:44;;;;;;;21.20;11.57;;;3.10;99.90;;;;;;5050933;28;20200;-79
2021/01/05 08:08:11;;;;;;;20.43;11.37;;;3.10;99.90;;;;;;5052474;28;20201;-79
2021/01/05 08:10:39;;;;;;;21.93;12.13;;;3.20;99.90;;;;;;5052970;28;20641;-80
2021/01/05 08:13:08;;;;;;;20.20;11.50;;;3.20;99.90;;;;;;5052558;28;20568;-79
2021/01/05 08:15:35;;;;;;;22.17;12.33;;;3.40;99.90;;;;;;5052594;28;20206;-79
2021/01/05 08:18:01;;;;;;;22.97;12.43;;;3.30;99.90;;;;;;5052601;28;20671;-79
2021/01/05 08:20:30;;;;;;;22.63;12.00;;;3.20;99.90;;;;;;5052224;28;20596;-79
2021/01/05 08:22:57;;;;;;;23.33;12.23;;;3.20;99.90;;;;;;5052950;28;20204;-79
2021/01/05 08:25:24;;;;;;;25.05;15.48;;;3.20;99.90;;;;;;5058958;28;20466;-79
2021/01/05 08:27:52;;;;;;;23.00;12.83;;;3.30;99.90;;;;;;5054910;28;20209;-79
2021/01/05 08:30:21;;;;;;;23.23;13.40;;;3.30;99.90;;;;;;5069762;28;20213;-79
2021/01/05 08:32:48;;;;;;;22.60;11.90;;;3.30;99.90;;;;;;5072392;28;20204;-79
2021/01/05 08:35:15;;;;;;;24.37;12.90;;;3.20;99.90;;;;;;5072233;28;20195;-79
2021/01/05 08:37:43;;;;;;;25.50;12.70;;;3.20;99.90;;;;;;5072469;28;20197;-79
2021/01/05 08:40:12;;;;;;;23.10;12.83;;;3.20;99.90;;;;;;5072513;28;20201;-79
2021/01/05 08:42:39;;;;;;;22.30;12.50;;;3.20;99.90;;;;;;5072544;28;20210;-79
2021/01/05 08:45:07;;;;;;;21.17;11.47;;;3.20;99.90;;;;;;5071946;28;20712;-79
2021/01/05 08:47:33;;;;;;;23.27;11.60;;;3.20;99.90;;;;;;5052196;28;20204;-79
2021/01/05 08:50:00;;;;;;;24.17;12.17;;;3.10;99.90;;;;;;5063938;28;20228;-79
2021/01/05 08:52:26;;;;;;;19.50;10.27;;;3.10;99.90;;;;;;5069467;28;20575;-79
2021/01/05 08:54:54;;;;;;;22.93;12.13;;;3.10;99.90;;;;;;5072186;28;20283;-79
2021/01/05 08:57:20;;;;;;;22.50;12.30;;;3.00;99.90;;;;;;5072154;28;20214;-79
2021/01/05 08:59:47;;;;;;;20.00;11.83;;;3.10;99.90;;;;;;5072489;28;20558;-79
2021/01/05 09:02:14;;;;;;;23.97;12.90;;;3.10;99.90;;;;;;5069708;28;20741;-79
2021/01/05 09:04:41;;;;;;;21.80;11.17;;;3.10;99.90;;;;;;5058782;28;20259;-79
2021/01/05 09:07:07;;;;;;;24.50;12.40;;;3.10;99.90;;;;;;5071081;28;20230;-79
2021/01/05 09:09:34;;;;;;;23.87;12.73;;;3.20;99.90;;;;;;5052956;28;20207;-79
2021/01/05 09:12:01;;;;;;;21.87;11.10;;;3.20;99.90;;;;;;5053057;28;20804;-79
2021/01/05 09:14:27;;;;;;;23.80;11.90;;;3.20;99.90;;;;;;5058318;28;20279;-79
2021/01/05 09:16:58;;;;;;;21.20;12.10;;;3.10;99.90;;;;;;5058615;28;20292;-79
2021/01/05 09:19:24;;;;;;;20.97;11.87;;;3.10;99.90;;;;;;5058227;28;20227;-79
2021/01/05 09:21:51;;;;;;;23.73;12.40;;;3.30;99.90;;;;;;5058786;28;20242;-79
2021/01/05 09:24:17;;;;;;;20.40;11.50;;;3.30;99.90;;;;;;5058879;28;20640;-79
2021/01/05 09:26:44;;;;;;;28.40;13.93;;;3.20;99.90;;;;;;5078438;28;20212;-79
2021/01/05 09:29:12;;;;;;;22.50;11.83;;;3.30;99.90;;;;;;5078713;28;20207;-80
2021/01/05 09:31:42;;;;;;;25.07;13.23;;;3.30;99.90;;;;;;5078387;28;20625;-79
2021/01/05 09:34:09;;;;;;;22.63;11.83;;;3.30;99.90;;;;;;5078995;28;20193;-79
2021/01/05 09:36:36;;;;;;;22.63;12.60;;;3.30;99.90;;;;;;5067169;28;20211;-79
2021/01/05 09:39:10;;;;;;;23.83;12.17;;;3.30;99.90;;;;;;5059190;28;20683;-79
2021/01/05 09:41:59;;;;;;;23.10;12.03;;;3.30;99.90;;;;;;5061737;28;20188;-78
2021/01/05 09:44:44;;;;;;;23.40;12.40;;;3.30;99.90;;;;;;5069796;28;20309;-78
2021/01/05 09:47:10;;;;;;;21.13;12.07;;;3.30;99.90;;;;;;5057566;28;20573;-79
2021/01/05 09:49:37;;;;;;;22.07;11.30;;;3.40;99.90;;;;;;5058712;28;20232;-79
2021/01/05 09:52:03;;;;;;;20.73;11.37;;;3.40;99.90;;;;;;5058485;28;20214;-79
2021/01/05 09:54:31;;;;;;;22.77;12.50;;;3.40;99.90;;;;;;5076811;28;20210;-78
2021/01/05 09:56:58;;;;;;;23.10;12.70;;;3.50;99.90;;;;;;5077956;28;20204;-80
2021/01/05 09:59:26;;;;;;;25.93;12.53;;;3.50;99.90;;;;;;5077895;28;20211;-78
2021/01/05 10:01:55;;;;;;;23.70;12.30;;;3.40;99.90;;;;;;5078290;28;20197;-79
2021/01/05 10:04:21;;;;;;;25.10;12.47;;;3.30;99.90;;;;;;5064533;28;20271;-79
2021/01/05 10:06:48;;;;;;;23.83;13.00;;;3.30;99.90;;;;;;5057771;28;20211;-79
2021/01/05 10:09:14;;;;;;;23.83;12.80;;;3.30;99.90;;;;;;5057611;28;20290;-79
2021/01/05 10:11:43;;;;;;;21.63;12.10;;;3.30;99.90;;;;;;5058086;28;20223;-79
2021/01/05 10:14:11;;;;;;;24.10;12.70;;;3.40;99.90;;;;;;5074715;28;20231;-79
2021/01/05 10:16:38;;;;;;;22.33;11.67;;;3.30;99.90;;;;;;5078149;28;20203;-79
2021/01/05 10:19:06;;;;;;;23.60;12.63;;;3.30;99.90;;;;;;5072767;28;20216;-80
2021/01/05 10:21:34;;;;;;;21.53;11.13;;;3.30;99.90;;;;;;5067803;28;20201;-80
2021/01/05 10:24:00;;;;;;;28.03;13.03;;;3.30;99.90;;;;;;5064181;28;20246;-79
2021/01/05 10:26:26;;;;;;;23.13;12.57;;;3.40;99.90;;;;;;5071203;28;20391;-79
2021/01/05 10:28:54;;;;;;;25.03;12.73;;;3.40;99.90;;;;;;5075077;28;20602;-79
2021/01/05 10:31:22;;;;;;;21.80;12.13;;;3.40;99.90;;;;;;5064913;28;20284;-79
2021/01/05 10:33:48;;;;;;;24.60;11.87;;;3.40;99.90;;;;;;5073710;28;20204;-79
2021/01/05 10:36:21;;;;;;;22.03;12.20;;;3.40;99.90;;;;;;5068408;28;20208;-79
2021/01/05 10:38:48;;;;;;;25.53;12.53;;;3.40;99.90;;;;;;5074140;28;20689;-79
2021/01/05 10:41:16;;;;;;;24.97;12.77;;;3.40;99.90;;;;;;5074068;28;20193;-78
2021/01/05 10:43:43;;;;;;;27.03;13.27;;;3.40;99.90;;;;;;5074112;28;20210;-78
2021/01/05 10:46:09;;;;;;;22.97;12.17;;;3.40;99.90;;;;;;5059869;28;20662;-78
2021/01/05 10:48:35;;;;;;;26.50;13.13;;;3.50;99.90;;;;;;5066152;28;20204;-79
2021/01/05 10:51:04;;;;;;;24.10;11.80;;;3.60;99.90;;;;;;5053901;28;20210;-78
2021/01/05 10:53:34;;;;;;;22.63;12.43;;;3.50;99.90;;;;;;5053900;28;20204;-79
2021/01/05 10:56:00;;;;;;;25.50;13.10;;;3.50;99.90;;;;;;5053977;28;20197;-79
2021/01/05 10:58:26;;;;;;;24.40;13.20;;;3.40;99.90;;;;;;5053983;28;20209;-78
2021/01/05 11:00:53;;;;;;;28.80;14.07;;;3.50;99.90;;;;;;5054130;28;20198;-79
2021/01/05 11:03:20;;;;;;;27.87;13.97;;;3.50;99.90;;;;;;5054021;28;20200;-80
2021/01/05 11:05:46;;;;;;;25.50;13.50;;;3.40;99.90;;;;;;5057765;28;20228;-78
2021/01/05 11:08:12;;;;;;;27.23;13.80;;;3.50;99.90;;;;;;5052622;28;20204;-79
2021/01/05 11:10:40;;;;;;;24.60;12.90;;;3.50;99.90;;;;;;5072343;28;20727;-79
2021/01/05 11:13:06;;;;;;;28.63;14.03;;;3.60;99.90;;;;;;5061823;28;20654;-79
2021/01/05 11:15:32;;;;;;;27.33;13.90;;;3.60;99.90;;;;;;5070810;28;20216;-79
2021/01/05 11:17:59;;;;;;;27.43;13.67;;;3.60;99.90;;;;;;5073859;28;20211;-78
2021/01/05 11:20:25;;;;;;;26.27;13.87;;;3.50;99.90;;;;;;5056471;28;20215;-79
2021/01/05 11:22:51;;;;;;;25.80;13.00;;;3.50;99.90;;;;;;5053860;28;20201;-79
2021/01/05 11:25:19;;;;;;;28.80;14.17;;;3.40;99.90;;;;;;5053507;28;20221;-79
2021/01/05 11:27:46;;;;;;;26.70;12.53;;;3.50;99.90;;;;;;5059978;28;20209;-79
2021/01/05 11:30:19;;;;;;;30.63;15.20;;;3.50;99.90;;;;;;5073585;28;20213;-79
2021/01/05 11:32:46;;;;;;;28.50;14.17;;;3.50;99.90;;;;;;5073047;28;20677;-78
2021/01/05 11:35:13;;;;;;;27.13;13.40;;;3.50;99.90;;;;;;5059289;28;20201;-79
2021/01/05 11:37:40;;;;;;;28.63;14.43;;;3.50;99.90;;;;;;5053214;28;20628;-79
2021/01/05 11:40:07;;;;;;;24.83;12.97;;;3.40;99.90;;;;;;5053726;28;20219;-79
2021/01/05 11:42:34;;;;;;;24.60;13.00;;;3.40;99.90;;;;;;5053197;28;20206;-78
2021/01/05 11:45:02;;;;;;;26.33;13.67;;;3.30;99.90;;;;;;5053653;28;20225;-79
2021/01/05 11:47:30;;;;;;;26.67;13.20;;;3.40;99.90;;;;;;5053562;28;20720;-79
2021/01/05 11:49:57;;;;;;;27.13;13.10;;;3.50;99.90;;;;;;5065472;28;20205;-78
2021/01/05 11:52:23;;;;;;;27.07;13.03;;;3.40;99.90;;;;;;5073176;28;20196;-79
2021/01/05 11:54:50;;;;;;;27.37;13.57;;;3.30;99.90;;;;;;5073339;28;20200;-78
2021/01/05 11:57:16;;;;;;;25.60;12.80;;;3.30;99.90;;;;;;5072657;28;20257;-79
2021/01/05 11:59:43;;;;;;;25.00;13.17;;;3.30;99.90;;;;;;5073417;28;20274;-79
2021/01/05 12:02:10;;;;;;;25.70;12.73;;;3.40;99.90;;;;;;5073300;28;20212;-79
2021/01/05 12:04:36;;;;;;;24.80;12.57;;;3.40;99.90;;;;;;5073076;28;20224;-79
2021/01/05 12:07:03;;;;;;;24.37;12.60;;;3.40;99.90;;;;;;5072923;28;20204;-79
2021/01/05 12:09:29;;;;;;;25.17;12.23;;;3.40;99.90;;;;;;5069819;28;20604;-79
2021/01/05 12:11:58;;;;;;;22.97;11.63;;;3.50;99.90;;;;;;5052805;28;20215;-78
2021/01/05 12:14:25;;;;;;;25.63;12.53;;;3.40;99.90;;;;;;5053103;28;20197;-78
2021/01/05 12:16:52;;;;;;;24.23;12.03;;;3.40;99.90;;;;;;5052736;28;20192;-80
2021/01/05 12:19:21;;;;;;;25.97;13.30;;;3.40;99.90;;;;;;5052393;28;20225;-78
2021/01/05 12:21:47;;;;;;;25.00;13.13;;;3.40;99.90;;;;;;5052790;28;20205;-78
2021/01/05 12:24:15;;;;;;;25.03;13.10;;;3.40;99.90;;;;;;5052447;28;20714;-78
2021/01/05 12:26:42;;;;;;;26.27;13.27;;;3.50;99.90;;;;;;5052558;28;20297;-78
2021/01/05 12:29:12;;;;;;;23.30;12.57;;;3.40;99.90;;;;;;5052514;28;20197;-78
2021/01/05 12:31:41;;;;;;;27.10;12.73;;;3.50;99.90;;;;;;5052896;28;20348;-79
2021/01/05 12:34:08;;;;;;;25.13;13.30;;;3.50;99.90;;;;;;5071039;28;20204;-79
2021/01/05 12:36:38;;;;;;;21.50;11.27;;;3.50;99.90;;;;;;5072195;28;20201;-79
2021/01/05 12:39:06;;;;;;;22.37;10.90;;;3.50;99.90;;;;;;5055422;28;20200;-78
2021/01/05 12:41:36;;;;;;;22.73;11.87;;;3.50;99.90;;;;;;5051882;28;20284;-79
2021/01/05 12:44:03;;;;;;;24.93;12.37;;;3.50;99.90;;;;;;5067608;28;20211;-79
2021/01/05 12:46:32;;;;;;;24.57;11.93;;;3.50;99.90;;;;;;5072184;28;20200;-78
2021/01/05 12:48:59;;;;;;;24.27;12.77;;;3.40;99.90;;;;;;5066890;28;20632;-79
2021/01/05 12:51:27;;;;;;;29.37;13.23;;;3.50;99.90;;;;;;5060555;28;20614;-78
2021/01/05 12:53:54;;;;;;;28.77;13.83;;;3.50;99.90;;;;;;5063153;28;20304;-79
2021/01/05 12:56:21;;;;;;;24.37;12.60;;;3.50;99.90;;;;;;5051970;28;20201;-79